TFM - Tactical Decision Aid
ID: Runway Winds: CIG/VIS Threshold:

KCAE - Columbia Metro, SC, US

Updated at: 1925 UTC 25 Sep 2020
Latest TAF at: 1730 UTC 25 Sep 2020

TAF Board

Time1856Z 25/20Z 25/21Z 25/22Z 25/23Z 26/00Z 26/01Z 26/02Z 26/03Z 26/04Z 26/05Z 26/06Z 26/07Z 26/08Z>>
Type OBS PRVL
  [TEMP]  
PRVL
  [TEMP]  
PRVL PRVL PRVL PRVL PRVL PRVL PRVL PRVL PRVL PRVL PRVL
VIS 10 >6
  [0.75]  
>6
  [0.75]  
>6 >6 >6 >6 >6 >6 >6 4 4 4 2
CIG 65 35
  [15]  
35
  [15]  
35 35 15 15 15 15 15 7 7 7 3
Cover BKN BKN
  [BKN]  
BKN
  [BKN]  
BKN BKN BKN BKN BKN BKN BKN OVC OVC OVC OVC
FltCat VFR VFR
  [LIFR]  
VFR
  [LIFR]  
VFR VFR MVFR MVFR MVFR MVFR MVFR IFR IFR IFR LIFR
WX -- VCSH
  [TSRA]  
VCSH
  [TSRA]  
VCSH VCSH VCSH VCSH VCSH VCSH VCSH BR BR BR BR
WDir 250 230
[230]
230
[230]
230 230 VRB VRB VRB VRB VRB VRB VRB VRB VRB
WSpd 3 5
  [5]  
5
  [5]  
5 5 4 4 4 4 4 0 0 0 3
WGst -- --
  [--]  
--
  [--]  
-- -- -- -- -- -- -- -- -- -- --

TDA Impact Legend

  None Marginal Slight Moderate High
Visibility (sm) >5 3≤X≤5 2≤X<3 0.5≤X<2 <0.5
Ceiling (100 ft) >30 10≤X≤30 6≤X<10 2≤X<6 <2
Wind Speed (kt) <15 15≤X<25 25≤X<30 ≥30
Wind Gust (kt) <15 15≤X<25 25≤X<35 ≥35
Weather No Wx Reported VCTS -TS,-FZRA TS,FZRA +TS,+FZRA
TAF
KCAE 251730Z 2518/2618 23005KT P6SM VCSH SCT015 BKN035
  TEMPO 2518/2522 3/4SM TSRA BKN015CB
  FM260000 VRB04KT P6SM VCSH SCT008 BKN015
  FM260500 00000KT 4SM BR OVC007
  FM260800 VRB03KT 2SM BR OVC003
  TEMPO 2610/2613 1/2SM FG OVC001
  FM261500 VRB03KT 5SM BR OVC006


METAR
KCAE 251856Z 25003KT 10SM FEW047 BKN065 BKN080 BKN130 26/23 A2995 RMK AO2 LTG DSNT SW AND W RAE22 SLP137 CB DSNT SW-W P0001 T02560228
KCAE 251756Z 21008KT 6SM RA FEW025 BKN055 BKN075 BKN200 26/23 A2995 RMK AO2 RAB50 SLP140 P0002 60012 T02560228 10278 20222 56014 $
KCAE 251752Z 22010KT 6SM RA SCT025 BKN050 BKN060 BKN200 27/22 A2996 RMK AO2 RAB50 P0000 $
KCAE 251744Z 20008KT 10SM SCT022 BKN028 BKN048 BKN200 27/22 A2996 RMK AO2 T02720217 $
KCAE 251737Z 20010KT 10SM SCT022 SCT028 BKN040 28/22 A2996 RMK AO2 T02780222 $
KCAE 251722Z 24006KT 10SM SCT020 BKN028 BKN039 28/23 A2996 RMK AO2 T02780228 $
KCAE 251714Z 23006KT 10SM SCT020 SCT028 BKN039 27/23 A2997 RMK AO2 T02720228 $
KCAE 251656Z 23005KT 10SM BKN020 BKN025 BKN031 27/23 A2997 RMK AO2 RAB19E43 SLP147 P0010 T02670228 $
KCAE 251556Z 19009KT 10SM BKN016 BKN023 OVC045 27/22 A2999 RMK AO2 SLP153 T02670217

Radar Display
Forecast Discussion